LFRH 121530Z AUTO 28009KT 9999 BKN010 OVC015 10/08 Q1030 BECMG BKN015 OVC025

ElémentsDécodage
LFRH Station météo située sur l'aérodrome de LORIENT Lann-Bihoué
121530Z émis le 12 du mois à 15h30 UTC
AUTO Bulletin édité par un automate
28009KT vent du 280°, 09 noeuds
9999 visibilité horizontale supérieure à 10 Km
BKN010 nuages morcelés (5/8 à 7/8) à 1000 pieds
OVC015 couverture nuageuse totale (8/8) à 1500 pieds
10/08 température 10°C, point de rosée 08°C
 soit une humidité relative de 87%
Q1030 la pression au niveau de la mer (QNH) est de 1030 hPa
BECMG fluctuation du temps prévue
BKN015 nuages morcelés (5/8 à 7/8) à 1500 pieds
OVC025 couverture nuageuse totale (8/8) à 2500 pieds